sensor_id;sensor_type;location;lat;lon;timestamp;pressure;altitude;pressure_sealevel;temperature;humidity
7930;BME280;4010;42.698;23.124;2023-06-22T00:01:15;118349.16;;;-140.64;100.00
7930;BME280;4010;42.698;23.124;2023-06-22T00:03:42;118349.16;;;-140.64;100.00
7930;BME280;4010;42.698;23.124;2023-06-22T00:06:09;118349.16;;;-140.64;100.00
7930;BME280;4010;42.698;23.124;2023-06-22T00:08:36;118349.16;;;-140.64;100.00
7930;BME280;4010;42.698;23.124;2023-06-22T00:11:02;118349.16;;;-140.64;100.00
7930;BME280;4010;42.698;23.124;2023-06-22T00:13:30;118349.16;;;-140.64;100.00
7930;BME280;4010;42.698;23.124;2023-06-22T00:15:57;118349.16;;;-140.64;100.00
7930;BME280;4010;42.698;23.124;2023-06-22T00:18:23;118349.16;;;-140.64;100.00
7930;BME280;4010;42.698;23.124;2023-06-22T00:20:54;118349.16;;;-140.64;100.00
7930;BME280;4010;42.698;23.124;2023-06-22T00:23:23;118349.16;;;-140.64;100.00
7930;BME280;4010;42.698;23.124;2023-06-22T00:25:50;118349.16;;;-140.64;100.00
7930;BME280;4010;42.698;23.124;2023-06-22T00:28:17;113927.22;;;-140.64;100.00
7930;BME280;4010;42.698;23.124;2023-06-22T00:30:45;118349.16;;;-140.64;100.00
7930;BME280;4010;42.698;23.124;2023-06-22T00:33:13;118349.16;;;-140.64;100.00
7930;BME280;4010;42.698;23.124;2023-06-22T00:35:41;118349.16;;;-140.64;100.00
7930;BME280;4010;42.698;23.124;2023-06-22T00:38:08;118349.16;;;-140.64;100.00
7930;BME280;4010;42.698;23.124;2023-06-22T00:40:34;118349.16;;;-140.64;100.00
7930;BME280;4010;42.698;23.124;2023-06-22T00:43:01;118116.59;;;-140.64;100.00
7930;BME280;4010;42.698;23.124;2023-06-22T00:45:28;113209.97;;;-140.64;100.00
7930;BME280;4010;42.698;23.124;2023-06-22T00:47:57;109406.19;;;-140.64;100.00
7930;BME280;4010;42.698;23.124;2023-06-22T00:50:27;108880.72;;;-140.64;100.00
7930;BME280;4010;42.698;23.124;2023-06-22T00:53:00;107830.03;;;-140.64;100.00
7930;BME280;4010;42.698;23.124;2023-06-22T00:55:28;117616.56;;;-140.64;100.00
7930;BME280;4010;42.698;23.124;2023-06-22T00:57:54;118349.16;;;-140.64;100.00
7930;BME280;4010;42.698;23.124;2023-06-22T01:00:23;118349.16;;;-140.64;100.00
7930;BME280;4010;42.698;23.124;2023-06-22T01:02:51;117828.50;;;-140.64;100.00
7930;BME280;4010;42.698;23.124;2023-06-22T01:05:21;118207.16;;;-140.64;100.00
7930;BME280;4010;42.698;23.124;2023-06-22T01:08:06;116365.78;;;-140.64;100.00
7930;BME280;4010;42.698;23.124;2023-06-22T01:10:40;113183.25;;;-140.64;100.00
7930;BME280;4010;42.698;23.124;2023-06-22T01:13:14;112034.72;;;-140.64;100.00
7930;BME280;4010;42.698;23.124;2023-06-22T01:15:46;107567.41;;;-140.64;100.00
7930;BME280;4010;42.698;23.124;2023-06-22T01:18:17;104417.44;;;-140.64;100.00
7930;BME280;4010;42.698;23.124;2023-06-22T01:20:46;101532.47;;;-140.64;100.00
7930;BME280;4010;42.698;23.124;2023-06-22T01:23:24;97078.59;;;-140.64;100.00
7930;BME280;4010;42.698;23.124;2023-06-22T01:25:59;97864.16;;;-140.64;100.00
7930;BME280;4010;42.698;23.124;2023-06-22T01:28:45;96031.44;;;-140.64;100.00
7930;BME280;4010;42.698;23.124;2023-06-22T01:31:14;96031.44;;;-140.64;100.00
7930;BME280;4010;42.698;23.124;2023-06-22T01:33:44;93153.44;;;-140.64;100.00
7930;BME280;4010;42.698;23.124;2023-06-22T01:36:13;92630.41;;;-140.64;100.00
7930;BME280;4010;42.698;23.124;2023-06-22T01:38:42;91061.81;;;-140.64;100.00
7930;BME280;4010;42.698;23.124;2023-06-22T01:41:09;87143.47;;;-140.64;100.00
7930;BME280;4010;42.698;23.124;2023-06-22T01:43:37;87143.47;;;-140.64;100.00
7930;BME280;4010;42.698;23.124;2023-06-22T01:46:06;83490.34;;;-140.64;100.00
7930;BME280;4010;42.698;23.124;2023-06-22T01:48:33;84794.59;;;-140.64;100.00
7930;BME280;4010;42.698;23.124;2023-06-22T01:51:00;83751.16;;;-140.64;100.00
7930;BME280;4010;42.698;23.124;2023-06-22T01:53:28;82708.03;;;-140.64;100.00
7930;BME280;4010;42.698;23.124;2023-06-22T01:55:55;83751.16;;;-140.64;100.00
7930;BME280;4010;42.698;23.124;2023-06-22T01:58:25;81143.94;;;-140.64;100.00
7930;BME280;4010;42.698;23.124;2023-06-22T02:00:56;78017.91;;;-140.64;100.00
7930;BME280;4010;42.698;23.124;2023-06-22T02:03:30;75935.47;;;-140.64;100.00
7930;BME280;4010;42.698;23.124;2023-06-22T02:06:03;75154.88;;;-140.64;100.00
7930;BME280;4010;42.698;23.124;2023-06-22T02:08:32;75675.25;;;-140.64;100.00
7930;BME280;4010;42.698;23.124;2023-06-22T02:11:02;75154.88;;;-140.64;100.00
7930;BME280;4010;42.698;23.124;2023-06-22T02:13:30;75675.25;;;-140.64;100.00
7930;BME280;4010;42.698;23.124;2023-06-22T02:15:57;75415.06;;;-140.64;100.00
7930;BME280;4010;42.698;23.124;2023-06-22T02:18:25;76716.25;;;-140.64;100.00
7930;BME280;4010;42.698;23.124;2023-06-22T02:20:52;76455.97;;;-140.64;100.00
7930;BME280;4010;42.698;23.124;2023-06-22T02:23:19;75935.47;;;-140.64;100.00
7930;BME280;4010;42.698;23.124;2023-06-22T02:25:45;75415.06;;;-140.64;100.00
7930;BME280;4010;42.698;23.124;2023-06-22T02:28:12;73854.28;;;-140.64;100.00
7930;BME280;4010;42.698;23.124;2023-06-22T02:30:39;72294.22;;;-140.64;100.00
7930;BME280;4010;42.698;23.124;2023-06-22T02:33:05;70215.25;;;-140.64;100.00
7930;BME280;4010;42.698;23.124;2023-06-22T02:35:33;68916.53;;;-140.64;100.00
7930;BME280;4010;42.698;23.124;2023-06-22T02:38:02;68137.56;;;-140.64;100.00
7930;BME280;4010;42.698;23.124;2023-06-22T02:40:29;65801.63;;;-140.64;100.00
7930;BME280;4010;42.698;23.124;2023-06-22T02:42:57;64504.59;;;-140.64;100.00
7930;BME280;4010;42.698;23.124;2023-06-22T02:45:27;63726.63;;;-140.64;100.00
7930;BME280;4010;42.698;23.124;2023-06-22T02:47:53;62948.81;;;-140.64;100.00
7930;BME280;4010;42.698;23.124;2023-06-22T02:50:20;61912.00;;;-140.64;100.00
7930;BME280;4010;42.698;23.124;2023-06-22T02:52:48;60616.44;;;-140.64;100.00
7930;BME280;4010;42.698;23.124;2023-06-22T02:55:15;58544.59;;;-140.64;100.00
7930;BME280;4010;42.698;23.124;2023-06-22T02:57:41;55439.16;;;-140.64;100.00
7930;BME280;4010;42.698;23.124;2023-06-22T03:00:10;52853.47;;;-140.64;100.00
7930;BME280;4010;42.698;23.124;2023-06-22T03:02:42;52078.13;;;-140.64;100.00
7930;BME280;4010;42.698;23.124;2023-06-22T03:05:09;51303.00;;;-140.64;100.00
7930;BME280;4010;42.698;23.124;2023-06-22T03:07:39;51561.34;;;-140.64;100.00
7930;BME280;4010;42.698;23.124;2023-06-22T03:10:08;50269.75;;;-140.64;100.00
7930;BME280;4010;42.698;23.124;2023-06-22T03:12:35;48978.63;;;-140.64;100.00
7930;BME280;4010;42.698;23.124;2023-06-22T03:15:03;41499.88;;;-140.64;100.00
7930;BME280;4010;42.698;23.124;2023-06-22T03:17:30;29157.75;;;-140.64;100.00
7930;BME280;4010;42.698;23.124;2023-06-22T03:19:56;32239.03;;;-140.64;100.00
7930;BME280;4010;42.698;23.124;2023-06-22T03:22:23;76195.72;;;-140.64;100.00
7930;BME280;4010;42.698;23.124;2023-06-22T03:24:49;118349.16;;;-140.64;100.00
7930;BME280;4010;42.698;23.124;2023-06-22T03:27:18;118349.16;;;-140.64;100.00
7930;BME280;4010;42.698;23.124;2023-06-22T03:29:44;118349.16;;;-140.64;100.00
7930;BME280;4010;42.698;23.124;2023-06-22T03:32:11;118349.16;;;-140.64;100.00
7930;BME280;4010;42.698;23.124;2023-06-22T03:34:37;118349.16;;;-140.64;100.00
7930;BME280;4010;42.698;23.124;2023-06-22T03:37:04;118349.16;;;-140.64;100.00
7930;BME280;4010;42.698;23.124;2023-06-22T03:39:31;118349.16;;;-140.64;100.00
7930;BME280;4010;42.698;23.124;2023-06-22T03:41:58;118349.16;;;-140.64;98.18
7930;BME280;4010;42.698;23.124;2023-06-22T03:44:26;118349.16;;;-140.64;96.77
7930;BME280;4010;42.698;23.124;2023-06-22T03:46:53;118349.16;;;-140.64;96.49
7930;BME280;4010;42.698;23.124;2023-06-22T03:49:20;118349.16;;;-140.64;96.79
7930;BME280;4010;42.698;23.124;2023-06-22T03:51:46;118349.16;;;-140.64;96.34
7930;BME280;4010;42.698;23.124;2023-06-22T03:54:13;118349.16;;;-140.64;97.33
7930;BME280;4010;42.698;23.124;2023-06-22T03:56:40;118349.16;;;-140.64;97.63
7930;BME280;4010;42.698;23.124;2023-06-22T03:59:06;118349.16;;;-140.64;98.41
7930;BME280;4010;42.698;23.124;2023-06-22T04:01:34;118349.16;;;-140.64;97.44
7930;BME280;4010;42.698;23.124;2023-06-22T04:04:02;118349.16;;;-140.64;96.17
7930;BME280;4010;42.698;23.124;2023-06-22T04:06:28;118349.16;;;-140.64;96.77
7930;BME280;4010;42.698;23.124;2023-06-22T04:08:55;118349.16;;;-140.64;96.14
7930;BME280;4010;42.698;23.124;2023-06-22T04:11:22;118349.16;;;-140.64;90.83
7930;BME280;4010;42.698;23.124;2023-06-22T04:13:48;118349.16;;;-140.64;85.55
7930;BME280;4010;42.698;23.124;2023-06-22T04:16:16;118349.16;;;-140.64;77.04
7930;BME280;4010;42.698;23.124;2023-06-22T04:18:44;118349.16;;;-140.64;73.77
7930;BME280;4010;42.698;23.124;2023-06-22T04:21:11;118349.16;;;-140.64;68.46
7930;BME280;4010;42.698;23.124;2023-06-22T04:23:38;118349.16;;;-140.64;68.27
7930;BME280;4010;42.698;23.124;2023-06-22T04:26:04;118349.16;;;-140.64;66.05
7930;BME280;4010;42.698;23.124;2023-06-22T04:28:31;118349.16;;;-140.64;64.73
7930;BME280;4010;42.698;23.124;2023-06-22T04:31:00;118349.16;;;-140.64;61.86
7930;BME280;4010;42.698;23.124;2023-06-22T04:33:28;118349.16;;;-140.64;59.79
7930;BME280;4010;42.698;23.124;2023-06-22T04:35:57;118349.16;;;-140.64;57.23
7930;BME280;4010;42.698;23.124;2023-06-22T04:38:26;118349.16;;;-140.64;54.56
7930;BME280;4010;42.698;23.124;2023-06-22T04:40:53;118349.16;;;-140.64;52.82
7930;BME280;4010;42.698;23.124;2023-06-22T04:43:20;118349.16;;;-140.64;52.20
7930;BME280;4010;42.698;23.124;2023-06-22T04:45:47;118349.16;;;-140.64;51.39
7930;BME280;4010;42.698;23.124;2023-06-22T04:48:17;118349.16;;;-140.64;48.42
7930;BME280;4010;42.698;23.124;2023-06-22T04:50:44;118349.16;;;-140.64;49.50
7930;BME280;4010;42.698;23.124;2023-06-22T04:53:12;118349.16;;;-140.64;48.94
7930;BME280;4010;42.698;23.124;2023-06-22T04:55:39;118349.16;;;-140.64;45.94
7930;BME280;4010;42.698;23.124;2023-06-22T04:58:07;118349.16;;;-140.64;45.25
7930;BME280;4010;42.698;23.124;2023-06-22T05:00:34;118349.16;;;-140.64;43.88
7930;BME280;4010;42.698;23.124;2023-06-22T05:03:02;118349.16;;;-140.64;43.26
7930;BME280;4010;42.698;23.124;2023-06-22T05:05:29;118349.16;;;-140.64;44.43
7930;BME280;4010;42.698;23.124;2023-06-22T05:07:56;118349.16;;;-140.64;46.23
7930;BME280;4010;42.698;23.124;2023-06-22T05:10:27;118349.16;;;-140.64;43.79
7930;BME280;4010;42.698;23.124;2023-06-22T05:12:53;118349.16;;;-140.64;42.51
7930;BME280;4010;42.698;23.124;2023-06-22T05:15:20;118349.16;;;-140.64;40.46
7930;BME280;4010;42.698;23.124;2023-06-22T05:17:48;118349.16;;;-140.64;41.49
7930;BME280;4010;42.698;23.124;2023-06-22T05:20:15;118349.16;;;-140.64;41.40
7930;BME280;4010;42.698;23.124;2023-06-22T05:22:43;118349.16;;;-140.64;40.75
7930;BME280;4010;42.698;23.124;2023-06-22T05:25:10;118349.16;;;-140.64;40.50
7930;BME280;4010;42.698;23.124;2023-06-22T05:27:39;118349.16;;;-140.64;42.85
7930;BME280;4010;42.698;23.124;2023-06-22T05:30:07;118349.16;;;-140.64;41.74
7930;BME280;4010;42.698;23.124;2023-06-22T05:32:34;118349.16;;;-140.64;40.67
7930;BME280;4010;42.698;23.124;2023-06-22T05:35:00;118349.16;;;-140.64;43.74
7930;BME280;4010;42.698;23.124;2023-06-22T05:37:28;118349.16;;;-140.64;46.00
7930;BME280;4010;42.698;23.124;2023-06-22T05:39:55;118349.16;;;-140.64;47.76
7930;BME280;4010;42.698;23.124;2023-06-22T05:42:22;118349.16;;;-140.64;49.69
7930;BME280;4010;42.698;23.124;2023-06-22T05:44:52;118349.16;;;-140.64;48.42
7930;BME280;4010;42.698;23.124;2023-06-22T05:47:19;118349.16;;;-140.64;50.86
7930;BME280;4010;42.698;23.124;2023-06-22T05:49:46;118349.16;;;-140.64;42.95
7930;BME280;4010;42.698;23.124;2023-06-22T05:52:12;118349.16;;;-140.64;41.09
7930;BME280;4010;42.698;23.124;2023-06-22T05:54:39;118349.16;;;-140.64;41.64
7930;BME280;4010;42.698;23.124;2023-06-22T05:57:07;118349.16;;;-140.64;40.82
7930;BME280;4010;42.698;23.124;2023-06-22T05:59:33;118349.16;;;-140.64;40.77
7930;BME280;4010;42.698;23.124;2023-06-22T06:02:02;118349.16;;;-140.64;41.40
7930;BME280;4010;42.698;23.124;2023-06-22T06:04:28;118349.16;;;-140.64;39.13
7930;BME280;4010;42.698;23.124;2023-06-22T06:06:55;118349.16;;;-140.64;40.06
7930;BME280;4010;42.698;23.124;2023-06-22T06:09:22;118349.16;;;-140.64;42.23
7930;BME280;4010;42.698;23.124;2023-06-22T06:11:49;118349.16;;;-140.64;42.17
7930;BME280;4010;42.698;23.124;2023-06-22T06:14:15;118349.16;;;-140.64;41.66
7930;BME280;4010;42.698;23.124;2023-06-22T06:16:42;118349.16;;;-140.64;42.46
7930;BME280;4010;42.698;23.124;2023-06-22T06:19:10;118349.16;;;-140.64;43.50
7930;BME280;4010;42.698;23.124;2023-06-22T06:21:37;118349.16;;;-140.64;43.66
7930;BME280;4010;42.698;23.124;2023-06-22T06:24:04;118349.16;;;-140.64;38.66
7930;BME280;4010;42.698;23.124;2023-06-22T06:26:31;118349.16;;;-140.64;41.40
7930;BME280;4010;42.698;23.124;2023-06-22T06:29:01;118349.16;;;-140.64;43.85
7930;BME280;4010;42.698;23.124;2023-06-22T06:31:28;118349.16;;;-140.64;42.36
7930;BME280;4010;42.698;23.124;2023-06-22T06:33:55;118349.16;;;-140.64;44.59
7930;BME280;4010;42.698;23.124;2023-06-22T06:36:23;118349.16;;;-140.64;44.73
7930;BME280;4010;42.698;23.124;2023-06-22T06:38:50;118349.16;;;-140.64;48.43
7930;BME280;4010;42.698;23.124;2023-06-22T06:41:17;118349.16;;;-140.64;52.21
7930;BME280;4010;42.698;23.124;2023-06-22T06:43:44;118349.16;;;-140.64;56.16
7930;BME280;4010;42.698;23.124;2023-06-22T06:46:11;118349.16;;;-140.64;56.58
7930;BME280;4010;42.698;23.124;2023-06-22T06:48:37;118349.16;;;-140.64;55.23
7930;BME280;4010;42.698;23.124;2023-06-22T06:51:05;118349.16;;;-140.64;58.44
7930;BME280;4010;42.698;23.124;2023-06-22T06:53:35;118349.16;;;-140.64;59.68
7930;BME280;4010;42.698;23.124;2023-06-22T06:56:02;118349.16;;;-140.64;64.57
7930;BME280;4010;42.698;23.124;2023-06-22T06:58:30;118349.16;;;-140.64;71.73
7930;BME280;4010;42.698;23.124;2023-06-22T07:00:57;118349.16;;;-140.64;69.62
7930;BME280;4010;42.698;23.124;2023-06-22T07:03:24;118349.16;;;-140.64;69.74
7930;BME280;4010;42.698;23.124;2023-06-22T07:05:50;118349.16;;;-140.64;71.78
7930;BME280;4010;42.698;23.124;2023-06-22T07:08:17;118349.16;;;-140.64;78.55
7930;BME280;4010;42.698;23.124;2023-06-22T07:10:46;118349.16;;;-140.64;65.48
7930;BME280;4010;42.698;23.124;2023-06-22T07:13:13;118349.16;;;-140.64;64.13
7930;BME280;4010;42.698;23.124;2023-06-22T07:15:39;118349.16;;;-140.64;61.00
7930;BME280;4010;42.698;23.124;2023-06-22T07:18:06;118349.16;;;-140.64;61.43
7930;BME280;4010;42.698;23.124;2023-06-22T07:20:33;118349.16;;;-140.64;58.18
7930;BME280;4010;42.698;23.124;2023-06-22T07:23:00;118349.16;;;-140.64;57.64
7930;BME280;4010;42.698;23.124;2023-06-22T07:25:26;118349.16;;;-140.64;62.39
7930;BME280;4010;42.698;23.124;2023-06-22T07:28:02;118349.16;;;-140.64;61.82
7930;BME280;4010;42.698;23.124;2023-06-22T07:30:29;118349.16;;;-140.64;63.56
7930;BME280;4010;42.698;23.124;2023-06-22T07:32:57;118349.16;;;-140.64;66.18
7930;BME280;4010;42.698;23.124;2023-06-22T07:35:28;118349.16;;;-140.64;70.16
7930;BME280;4010;42.698;23.124;2023-06-22T07:37:55;118349.16;;;-140.64;71.13
7930;BME280;4010;42.698;23.124;2023-06-22T07:40:22;118349.16;;;-140.64;69.90
7930;BME280;4010;42.698;23.124;2023-06-22T07:42:48;118349.16;;;-140.64;73.84
7930;BME280;4010;42.698;23.124;2023-06-22T07:45:18;118349.16;;;-140.64;67.52
7930;BME280;4010;42.698;23.124;2023-06-22T07:47:45;118349.16;;;-140.64;69.88
7930;BME280;4010;42.698;23.124;2023-06-22T07:50:11;118349.16;;;-140.64;73.34
7930;BME280;4010;42.698;23.124;2023-06-22T07:52:38;118349.16;;;-140.64;71.30
7930;BME280;4010;42.698;23.124;2023-06-22T07:55:05;118349.16;;;-140.64;73.86
7930;BME280;4010;42.698;23.124;2023-06-22T07:57:32;118349.16;;;-140.64;70.54
7930;BME280;4010;42.698;23.124;2023-06-22T07:59:59;118349.16;;;-140.64;69.50
7930;BME280;4010;42.698;23.124;2023-06-22T08:02:27;118349.16;;;-140.64;70.16
7930;BME280;4010;42.698;23.124;2023-06-22T08:04:53;118349.16;;;-140.64;70.56
7930;BME280;4010;42.698;23.124;2023-06-22T08:07:20;118349.16;;;-140.64;78.78
7930;BME280;4010;42.698;23.124;2023-06-22T08:09:48;118349.16;;;-140.64;81.05
7930;BME280;4010;42.698;23.124;2023-06-22T08:12:15;118349.16;;;-140.64;71.44
7930;BME280;4010;42.698;23.124;2023-06-22T08:14:43;118349.16;;;-140.64;73.93
7930;BME280;4010;42.698;23.124;2023-06-22T08:17:11;118349.16;;;-140.64;61.55
7930;BME280;4010;42.698;23.124;2023-06-22T08:19:40;118349.16;;;-140.64;68.76
7930;BME280;4010;42.698;23.124;2023-06-22T08:22:06;118349.16;;;-140.64;65.79
7930;BME280;4010;42.698;23.124;2023-06-22T08:24:33;118349.16;;;-140.64;67.40
7930;BME280;4010;42.698;23.124;2023-06-22T08:27:00;118349.16;;;-140.64;64.27
7930;BME280;4010;42.698;23.124;2023-06-22T08:29:26;118349.16;;;-140.64;67.56
7930;BME280;4010;42.698;23.124;2023-06-22T08:31:53;118349.16;;;-140.64;70.03
7930;BME280;4010;42.698;23.124;2023-06-22T08:34:19;118349.16;;;-140.64;65.36
7930;BME280;4010;42.698;23.124;2023-06-22T08:36:48;118349.16;;;-140.64;63.61
7930;BME280;4010;42.698;23.124;2023-06-22T08:39:16;118349.16;;;-140.64;64.68
7930;BME280;4010;42.698;23.124;2023-06-22T08:41:43;118349.16;;;-140.64;72.14
7930;BME280;4010;42.698;23.124;2023-06-22T08:44:10;118349.16;;;-140.64;66.09
7930;BME280;4010;42.698;23.124;2023-06-22T08:46:37;118349.16;;;-140.64;72.13
7930;BME280;4010;42.698;23.124;2023-06-22T08:49:05;118349.16;;;-140.64;63.49
7930;BME280;4010;42.698;23.124;2023-06-22T08:51:32;118349.16;;;-140.64;65.37
7930;BME280;4010;42.698;23.124;2023-06-22T08:54:00;118349.16;;;-140.64;69.67
7930;BME280;4010;42.698;23.124;2023-06-22T08:56:26;118349.16;;;-140.64;70.82
7930;BME280;4010;42.698;23.124;2023-06-22T08:58:53;118349.16;;;-140.64;69.35
7930;BME280;4010;42.698;23.124;2023-06-22T09:01:20;118349.16;;;-140.64;66.69
7930;BME280;4010;42.698;23.124;2023-06-22T09:03:47;118349.16;;;-140.64;70.02
7930;BME280;4010;42.698;23.124;2023-06-22T09:06:20;118349.16;;;-140.64;70.95
7930;BME280;4010;42.698;23.124;2023-06-22T09:08:47;118349.16;;;-140.64;73.56
7930;BME280;4010;42.698;23.124;2023-06-22T09:11:15;118349.16;;;-140.64;69.13
7930;BME280;4010;42.698;23.124;2023-06-22T09:13:42;118349.16;;;-140.64;64.57
7930;BME280;4010;42.698;23.124;2023-06-22T09:16:09;118349.16;;;-140.64;67.12
7930;BME280;4010;42.698;23.124;2023-06-22T09:18:37;118349.16;;;-140.64;61.00
7930;BME280;4010;42.698;23.124;2023-06-22T09:21:03;118349.16;;;-140.64;63.55
7930;BME280;4010;42.698;23.124;2023-06-22T09:23:30;118349.16;;;-140.64;59.95
7930;BME280;4010;42.698;23.124;2023-06-22T09:25:57;118349.16;;;-140.64;62.54
7930;BME280;4010;42.698;23.124;2023-06-22T09:28:25;118349.16;;;-140.64;61.28
7930;BME280;4010;42.698;23.124;2023-06-22T09:30:51;118349.16;;;-140.64;61.39
7930;BME280;4010;42.698;23.124;2023-06-22T09:33:24;118349.16;;;-140.64;62.04
7930;BME280;4010;42.698;23.124;2023-06-22T09:35:51;118349.16;;;-140.64;63.60
7930;BME280;4010;42.698;23.124;2023-06-22T09:38:17;118349.16;;;-140.64;68.29
7930;BME280;4010;42.698;23.124;2023-06-22T09:40:44;118349.16;;;-140.64;59.11
7930;BME280;4010;42.698;23.124;2023-06-22T09:43:11;118349.16;;;-140.64;66.30
7930;BME280;4010;42.698;23.124;2023-06-22T09:45:39;118349.16;;;-140.64;60.34
7930;BME280;4010;42.698;23.124;2023-06-22T09:48:06;118349.16;;;-140.64;64.06
7930;BME280;4010;42.698;23.124;2023-06-22T09:50:32;118349.16;;;-140.64;60.17
7930;BME280;4010;42.698;23.124;2023-06-22T09:52:59;118349.16;;;-140.64;60.27
7930;BME280;4010;42.698;23.124;2023-06-22T09:55:26;118349.16;;;-140.64;67.99
7930;BME280;4010;42.698;23.124;2023-06-22T09:57:52;118349.16;;;-140.64;58.54
7930;BME280;4010;42.698;23.124;2023-06-22T10:00:20;118349.16;;;-140.64;56.52
7930;BME280;4010;42.698;23.124;2023-06-22T10:02:48;118349.16;;;-140.64;58.08
7930;BME280;4010;42.698;23.124;2023-06-22T10:05:16;118349.16;;;-140.64;59.88
7930;BME280;4010;42.698;23.124;2023-06-22T10:07:42;118349.16;;;-140.64;60.18
7930;BME280;4010;42.698;23.124;2023-06-22T10:10:09;118349.16;;;-140.64;65.09
7930;BME280;4010;42.698;23.124;2023-06-22T10:12:37;118349.16;;;-140.64;56.23
7930;BME280;4010;42.698;23.124;2023-06-22T10:15:05;118349.16;;;-140.64;56.42
7930;BME280;4010;42.698;23.124;2023-06-22T10:17:32;118349.16;;;-140.64;57.16
7930;BME280;4010;42.698;23.124;2023-06-22T10:20:00;118349.16;;;-140.64;66.06
7930;BME280;4010;42.698;23.124;2023-06-22T10:22:31;118349.16;;;-140.64;61.48
7930;BME280;4010;42.698;23.124;2023-06-22T10:24:57;118349.16;;;-140.64;59.78
7930;BME280;4010;42.698;23.124;2023-06-22T10:27:24;118349.16;;;-140.64;60.21
7930;BME280;4010;42.698;23.124;2023-06-22T10:29:51;118349.16;;;-140.64;54.20
7930;BME280;4010;42.698;23.124;2023-06-22T10:32:19;118349.16;;;-140.64;57.66
7930;BME280;4010;42.698;23.124;2023-06-22T10:34:46;118349.16;;;-140.64;56.86
7930;BME280;4010;42.698;23.124;2023-06-22T10:37:15;118349.16;;;-140.64;61.84
7930;BME280;4010;42.698;23.124;2023-06-22T10:39:41;118349.16;;;-140.64;57.86
7930;BME280;4010;42.698;23.124;2023-06-22T10:42:08;118349.16;;;-140.64;55.92
7930;BME280;4010;42.698;23.124;2023-06-22T10:44:35;118349.16;;;-140.64;53.93
7930;BME280;4010;42.698;23.124;2023-06-22T10:47:01;118349.16;;;-140.64;58.86
7930;BME280;4010;42.698;23.124;2023-06-22T10:49:28;118349.16;;;-140.64;54.53
7930;BME280;4010;42.698;23.124;2023-06-22T10:51:55;118349.16;;;-140.64;54.97
7930;BME280;4010;42.698;23.124;2023-06-22T10:54:23;118349.16;;;-140.64;57.17
7930;BME280;4010;42.698;23.124;2023-06-22T10:56:49;118349.16;;;-140.64;51.44
7930;BME280;4010;42.698;23.124;2023-06-22T10:59:16;118349.16;;;-140.64;59.00
7930;BME280;4010;42.698;23.124;2023-06-22T11:01:42;118349.16;;;-140.64;53.86
7930;BME280;4010;42.698;23.124;2023-06-22T11:04:09;118349.16;;;-140.64;55.80
7930;BME280;4010;42.698;23.124;2023-06-22T11:06:36;118349.16;;;-140.64;54.76
7930;BME280;4010;42.698;23.124;2023-06-22T11:09:03;118349.16;;;-140.64;55.65
7930;BME280;4010;42.698;23.124;2023-06-22T11:11:31;118349.16;;;-140.64;53.37
7930;BME280;4010;42.698;23.124;2023-06-22T11:13:58;118349.16;;;-140.64;50.36
7930;BME280;4010;42.698;23.124;2023-06-22T11:16:25;118349.16;;;-140.64;50.99
7930;BME280;4010;42.698;23.124;2023-06-22T11:18:51;118349.16;;;-140.64;52.68
7930;BME280;4010;42.698;23.124;2023-06-22T11:21:18;118349.16;;;-140.64;49.19
7930;BME280;4010;42.698;23.124;2023-06-22T11:23:45;118349.16;;;-140.64;49.29
7930;BME280;4010;42.698;23.124;2023-06-22T11:26:12;118349.16;;;-140.64;45.91
7930;BME280;4010;42.698;23.124;2023-06-22T11:28:40;118349.16;;;-140.64;45.88
7930;BME280;4010;42.698;23.124;2023-06-22T11:31:06;118349.16;;;-140.64;46.30
7930;BME280;4010;42.698;23.124;2023-06-22T11:33:34;118349.16;;;-140.64;52.09
7930;BME280;4010;42.698;23.124;2023-06-22T11:36:01;118349.16;;;-140.64;46.94
7930;BME280;4010;42.698;23.124;2023-06-22T11:38:27;118349.16;;;-140.64;46.57
7930;BME280;4010;42.698;23.124;2023-06-22T11:40:55;118349.16;;;-140.64;45.47
7930;BME280;4010;42.698;23.124;2023-06-22T11:43:22;118349.16;;;-140.64;52.85
7930;BME280;4010;42.698;23.124;2023-06-22T11:45:50;118349.16;;;-140.64;50.84
7930;BME280;4010;42.698;23.124;2023-06-22T11:48:17;118349.16;;;-140.64;49.06
7930;BME280;4010;42.698;23.124;2023-06-22T11:50:44;118349.16;;;-140.64;49.92
7930;BME280;4010;42.698;23.124;2023-06-22T11:53:10;118349.16;;;-140.64;49.50
7930;BME280;4010;42.698;23.124;2023-06-22T11:55:37;118349.16;;;-140.64;45.41
7930;BME280;4010;42.698;23.124;2023-06-22T11:58:04;118349.16;;;-140.64;44.86
7930;BME280;4010;42.698;23.124;2023-06-22T12:00:31;118349.16;;;-140.64;42.40
7930;BME280;4010;42.698;23.124;2023-06-22T12:02:59;118349.16;;;-140.64;43.00
7930;BME280;4010;42.698;23.124;2023-06-22T12:05:26;118349.16;;;-140.64;45.05
7930;BME280;4010;42.698;23.124;2023-06-22T12:07:53;118349.16;;;-140.64;43.97
7930;BME280;4010;42.698;23.124;2023-06-22T12:10:20;118349.16;;;-140.64;41.02
7930;BME280;4010;42.698;23.124;2023-06-22T12:12:47;118349.16;;;-140.64;44.02
7930;BME280;4010;42.698;23.124;2023-06-22T12:15:14;118349.16;;;-140.64;48.66
7930;BME280;4010;42.698;23.124;2023-06-22T12:17:40;118349.16;;;-140.64;50.05
7930;BME280;4010;42.698;23.124;2023-06-22T12:20:09;118349.16;;;-140.64;56.29
7930;BME280;4010;42.698;23.124;2023-06-22T12:22:36;118349.16;;;-140.64;58.61
7930;BME280;4010;42.698;23.124;2023-06-22T12:25:04;118349.16;;;-140.64;80.77
7930;BME280;4010;42.698;23.124;2023-06-22T12:27:31;118349.16;;;-140.64;92.07
7930;BME280;4010;42.698;23.124;2023-06-22T12:29:58;118349.16;;;-140.64;100.00
7930;BME280;4010;42.698;23.124;2023-06-22T12:32:24;118349.16;;;-140.64;100.00
7930;BME280;4010;42.698;23.124;2023-06-22T12:34:51;118349.16;;;-140.64;100.00
7930;BME280;4010;42.698;23.124;2023-06-22T12:37:19;118349.16;;;-140.64;100.00
7930;BME280;4010;42.698;23.124;2023-06-22T12:39:46;118349.16;;;-140.64;100.00